Time;durP1;ratioP1;P1;durP2;ratioP2;P2;SDS_P1;SDS_P2;PMS_P1;PMS_P2;Temp;Humidity;BMP_temperature;BMP_pressure;BME280_temperature;BME280_humidity;BME280_pressure;Samples;Min_cycle;Max_cycle;Signal;HPM_P1;HPM_P2
2021/12/19 00:00:48;;;;;;;8.83;4.90;;;1.30;99.90;;;;;;5061338;28;20048;-72
2021/12/19 00:08:52;;;;;;;7.10;4.22;;;1.40;99.90;;;;;;5074120;28;20090;-72
2021/12/19 00:11:23;;;;;;;8.98;4.30;;;1.40;99.90;;;;;;5055912;28;20052;-73
2021/12/19 00:13:50;;;;;;;9.35;5.20;;;1.40;99.90;;;;;;5055761;28;20039;-72
2021/12/19 00:16:17;;;;;;;8.40;4.72;;;1.40;99.90;;;;;;5074223;28;20495;-72
2021/12/19 00:18:43;;;;;;;8.13;4.55;;;1.40;99.90;;;;;;5055860;28;20094;-72
2021/12/19 00:21:11;;;;;;;10.00;4.93;;;1.40;99.90;;;;;;5039685;28;20060;-72
2021/12/19 00:23:38;;;;;;;8.32;4.78;;;1.40;99.90;;;;;;5053693;28;20491;-72
2021/12/19 00:26:04;;;;;;;11.27;5.65;;;1.50;99.90;;;;;;5050653;28;20040;-72
2021/12/19 00:28:30;;;;;;;10.00;5.40;;;1.50;99.90;;;;;;5073707;28;20039;-72
2021/12/19 00:30:56;;;;;;;9.37;4.53;;;1.50;99.90;;;;;;5055297;28;20120;-72
2021/12/19 00:33:22;;;;;;;11.17;5.60;;;1.50;99.90;;;;;;5073645;28;20442;-72
2021/12/19 00:35:47;;;;;;;10.05;4.60;;;1.50;99.90;;;;;;5060634;28;20465;-72
2021/12/19 00:38:13;;;;;;;9.03;5.20;;;1.50;99.90;;;;;;5053757;28;20032;-72
2021/12/19 00:40:39;;;;;;;11.65;5.82;;;1.50;99.90;;;;;;5064765;28;20548;-72
2021/12/19 00:43:11;;;;;;;8.43;5.00;;;1.50;99.90;;;;;;5073728;28;20028;-73
2021/12/19 00:45:40;;;;;;;9.55;5.47;;;1.50;99.90;;;;;;5073308;28;20460;-72
2021/12/19 00:48:08;;;;;;;7.50;4.65;;;1.50;99.90;;;;;;5072435;28;20090;-72
2021/12/19 00:50:36;;;;;;;10.25;5.03;;;1.50;99.90;;;;;;5062208;28;20112;-72
2021/12/19 00:53:04;;;;;;;10.15;5.20;;;1.50;99.90;;;;;;5053386;28;20032;-72
2021/12/19 00:55:30;;;;;;;8.63;4.55;;;1.50;99.90;;;;;;5045086;28;20041;-72
2021/12/19 00:57:56;;;;;;;12.18;5.60;;;1.50;99.90;;;;;;5055298;28;20040;-72
2021/12/19 01:00:27;;;;;;;9.77;5.00;;;1.50;99.90;;;;;;5054791;28;20056;-72
2021/12/19 01:02:56;;;;;;;10.25;5.55;;;1.50;99.90;;;;;;5073209;28;20472;-72
2021/12/19 01:05:22;;;;;;;9.93;5.03;;;1.50;99.90;;;;;;5054493;28;20035;-72
2021/12/19 01:07:48;;;;;;;9.95;5.40;;;1.50;99.90;;;;;;5054958;28;20400;-72
2021/12/19 01:10:14;;;;;;;9.50;5.40;;;1.60;99.90;;;;;;5072747;28;20086;-73
2021/12/19 01:12:40;;;;;;;10.32;5.57;;;1.50;99.90;;;;;;5054795;28;20452;-73
2021/12/19 01:15:09;;;;;;;8.90;5.13;;;1.60;99.90;;;;;;5072498;28;20115;-72
2021/12/19 01:17:35;;;;;;;9.93;5.28;;;1.60;99.90;;;;;;5054805;28;20269;-73
2021/12/19 01:20:03;;;;;;;10.05;5.90;;;1.50;99.90;;;;;;5072305;28;20404;-71
2021/12/19 01:22:28;;;;;;;11.93;5.40;;;1.60;99.90;;;;;;5072708;28;20098;-72
2021/12/19 01:24:54;;;;;;;8.37;4.73;;;1.50;99.90;;;;;;5072063;28;20464;-73
2021/12/19 01:27:20;;;;;;;10.43;5.93;;;1.50;99.90;;;;;;5072777;28;20082;-71
2021/12/19 01:29:45;;;;;;;10.37;5.17;;;1.60;99.90;;;;;;5067906;28;20033;-73
2021/12/19 01:32:11;;;;;;;9.43;5.20;;;1.60;99.90;;;;;;5034794;28;20548;-73
2021/12/19 01:34:37;;;;;;;8.67;4.73;;;1.50;99.90;;;;;;5036874;28;20031;-72
2021/12/19 01:37:03;;;;;;;8.37;4.87;;;1.50;99.90;;;;;;5072638;28;20032;-72
2021/12/19 01:39:28;;;;;;;10.17;6.10;;;1.60;99.90;;;;;;5069769;28;20091;-72
2021/12/19 01:41:57;;;;;;;9.33;5.57;;;1.50;99.90;;;;;;5034430;28;20029;-72
2021/12/19 01:44:24;;;;;;;10.13;5.25;;;1.30;99.90;;;;;;5053462;28;20032;-72
2021/12/19 01:46:50;;;;;;;10.18;5.25;;;1.50;99.90;;;;;;5054064;28;20056;-72
2021/12/19 01:49:19;;;;;;;9.65;5.72;;;1.40;99.90;;;;;;5054128;28;20024;-72
2021/12/19 01:51:45;;;;;;;10.85;5.50;;;1.50;99.90;;;;;;5071618;28;20139;-72
2021/12/19 01:54:12;;;;;;;8.63;4.97;;;1.50;99.90;;;;;;5072208;28;20040;-72
2021/12/19 01:56:38;;;;;;;11.00;5.32;;;1.50;99.90;;;;;;5071999;28;20032;-72
2021/12/19 01:59:06;;;;;;;9.32;5.22;;;1.50;99.90;;;;;;5071933;28;20027;-71
2021/12/19 02:01:44;;;;;;;9.43;4.80;;;1.50;99.90;;;;;;5053120;28;20029;-72
2021/12/19 02:04:11;;;;;;;8.95;5.05;;;1.50;99.90;;;;;;5034089;28;20037;-72
2021/12/19 02:06:37;;;;;;;11.40;5.43;;;1.50;99.90;;;;;;5051814;28;20432;-73
2021/12/19 02:09:06;;;;;;;8.57;4.80;;;1.50;99.90;;;;;;5034220;28;20056;-72
2021/12/19 02:11:36;;;;;;;9.85;5.53;;;1.50;99.90;;;;;;5052388;28;20032;-72
2021/12/19 02:14:03;;;;;;;9.73;5.07;;;1.50;99.90;;;;;;5071669;28;20476;-72
2021/12/19 02:16:28;;;;;;;;;;;1.50;99.90;;;;;;5053827;28;20369;-72
2021/12/19 02:18:56;;;;;;;10.77;4.95;;;1.50;99.90;;;;;;5053918;28;20049;-72
2021/12/19 02:21:21;;;;;;;9.27;5.30;;;1.50;99.90;;;;;;5071565;28;20108;-71
2021/12/19 02:23:47;;;;;;;10.37;4.70;;;1.50;99.90;;;;;;5053620;28;20428;-71
2021/12/19 02:26:14;;;;;;;10.03;5.63;;;1.50;99.90;;;;;;5071303;28;20025;-73
2021/12/19 02:28:40;;;;;;;;;;;1.60;99.90;;;;;;5072085;28;20035;-72
2021/12/19 02:31:05;;;;;;;7.68;4.15;;;1.60;99.90;;;;;;5056213;28;19909;-72
2021/12/19 02:33:37;;;;;;;8.73;5.03;;;1.60;99.90;;;;;;5033279;28;20040;-73
2021/12/19 02:36:38;;;;;;;8.48;4.57;;;1.50;99.90;;;;;;5065748;28;20024;-71
2021/12/19 02:49:45;;;;;;;9.05;5.20;;;1.60;99.90;;;;;;5071453;28;20503;-71
2021/12/19 02:52:14;;;;;;;8.33;4.90;;;1.50;99.90;;;;;;5053323;28;20025;-71
2021/12/19 02:54:40;;;;;;;9.93;4.68;;;1.60;99.90;;;;;;5070599;28;20305;-70
2021/12/19 02:57:06;;;;;;;9.77;4.82;;;1.50;99.90;;;;;;5070891;28;20036;-71
2021/12/19 02:59:32;;;;;;;8.77;4.47;;;1.50;99.90;;;;;;5070798;28;20534;-71
2021/12/19 03:01:58;;;;;;;8.98;5.10;;;1.50;99.90;;;;;;5053079;28;20035;-71
2021/12/19 03:04:24;;;;;;;8.20;4.78;;;1.50;99.90;;;;;;5070683;28;20033;-73
2021/12/19 03:06:50;;;;;;;7.70;4.57;;;1.50;99.90;;;;;;5052947;28;20044;-70
2021/12/19 03:09:34;;;;;;;8.03;4.07;;;1.50;99.90;;;;;;5070811;28;20269;-71
2021/12/19 03:12:14;;;;;;;8.00;4.53;;;1.50;99.90;;;;;;5074137;28;20041;-72
2021/12/19 03:20:10;;;;;;;8.27;4.60;;;1.50;99.90;;;;;;5074902;28;20035;-71
2021/12/19 03:22:36;;;;;;;8.57;4.55;;;1.50;99.90;;;;;;5056951;28;20396;-71
2021/12/19 03:25:02;;;;;;;6.97;3.63;;;1.40;99.90;;;;;;5074630;28;20037;-72
2021/12/19 03:27:28;;;;;;;8.30;4.55;;;1.50;99.90;;;;;;5074816;28;20442;-72
2021/12/19 03:29:53;;;;;;;9.87;4.43;;;1.40;99.90;;;;;;5069280;28;20112;-71
2021/12/19 03:32:19;;;;;;;8.83;4.43;;;1.50;99.90;;;;;;5054970;28;20108;-71
2021/12/19 03:34:45;;;;;;;8.57;4.37;;;1.50;99.90;;;;;;5058501;28;20066;-71
2021/12/19 03:37:11;;;;;;;9.43;4.90;;;1.50;99.90;;;;;;5074571;28;20032;-71
2021/12/19 03:39:54;;;;;;;8.70;4.45;;;1.40;99.90;;;;;;5074075;28;20420;-70
2021/12/19 03:42:20;;;;;;;8.48;5.22;;;1.50;99.90;;;;;;5074655;28;20024;-70
2021/12/19 03:44:46;;;;;;;10.13;4.90;;;1.50;99.90;;;;;;5074331;28;20407;-70
2021/12/19 03:47:11;;;;;;;10.50;4.87;;;1.50;99.90;;;;;;5074429;28;20035;-70
2021/12/19 03:49:37;;;;;;;9.20;4.90;;;1.50;99.90;;;;;;5073980;28;20020;-72
2021/12/19 03:52:03;;;;;;;8.33;5.20;;;1.50;99.90;;;;;;5074610;28;20064;-71
2021/12/19 03:54:29;;;;;;;10.23;5.28;;;1.50;99.90;;;;;;5073859;28;20276;-72
2021/12/19 03:56:55;;;;;;;11.33;5.43;;;1.50;99.90;;;;;;5074211;28;20033;-71
2021/12/19 03:59:20;;;;;;;10.27;5.27;;;1.50;99.90;;;;;;5055687;28;20822;-72
2021/12/19 04:01:50;;;;;;;8.73;4.67;;;1.50;99.90;;;;;;5074262;28;20024;-70
2021/12/19 04:04:16;;;;;;;10.68;5.15;;;1.60;99.90;;;;;;5073953;28;20108;-74
2021/12/19 04:06:42;;;;;;;10.10;5.33;;;1.60;99.90;;;;;;5073920;28;20107;-71
2021/12/19 04:09:08;;;;;;;10.10;5.03;;;1.60;99.90;;;;;;5073870;28;20410;-70
2021/12/19 04:11:33;;;;;;;10.43;5.77;;;1.60;99.90;;;;;;5055128;28;20039;-70
2021/12/19 04:13:59;;;;;;;9.83;5.80;;;1.60;99.90;;;;;;5036039;28;20029;-71
2021/12/19 04:16:25;;;;;;;9.63;5.07;;;1.60;99.90;;;;;;5053940;28;20360;-71
2021/12/19 04:18:50;;;;;;;10.23;5.10;;;1.60;99.90;;;;;;5073882;28;20043;-71
2021/12/19 04:21:16;;;;;;;11.27;5.10;;;1.70;99.90;;;;;;5055534;28;20033;-70
2021/12/19 04:23:42;;;;;;;8.67;5.20;;;1.70;99.90;;;;;;5073883;28;20103;-70
2021/12/19 04:26:08;;;;;;;10.77;6.00;;;1.70;99.90;;;;;;5061813;28;20029;-70
2021/12/19 04:28:33;;;;;;;10.20;5.47;;;1.60;99.90;;;;;;5053680;28;20029;-70
2021/12/19 04:31:00;;;;;;;10.27;5.03;;;1.70;99.90;;;;;;5067889;28;20040;-72
2021/12/19 04:33:28;;;;;;;8.18;5.10;;;1.70;99.90;;;;;;5056118;28;20032;-73
2021/12/19 04:36:00;;;;;;;11.02;5.40;;;1.70;99.90;;;;;;5054880;28;20029;-70
2021/12/19 04:57:42;;;;;;;8.70;4.90;;;1.70;99.90;;;;;;4991650;28;20057;-71
2021/12/19 05:00:13;;;;;;;9.30;4.35;;;1.70;99.90;;;;;;4991283;28;20038;-71
2021/12/19 05:05:28;;;;;;;9.18;4.47;;;1.70;99.90;;;;;;5072580;28;20040;-72
2021/12/19 05:16:08;;;;;;;10.23;5.25;;;1.70;99.90;;;;;;5057597;28;20116;-71
2021/12/19 05:18:37;;;;;;;9.73;5.30;;;1.70;99.90;;;;;;5052733;28;20474;-71
2021/12/19 05:21:12;;;;;;;11.02;5.70;;;1.70;99.90;;;;;;5049455;28;20033;-71
2021/12/19 05:24:02;;;;;;;12.32;5.32;;;1.80;99.90;;;;;;5072898;28;20012;-71
2021/12/19 05:26:23;;;;;;;9.57;4.70;;;1.80;99.90;;;;;;5072360;28;20037;-71
2021/12/19 05:28:52;;;;;;;10.83;5.40;;;1.80;99.90;;;;;;5072450;28;20042;-71
2021/12/19 05:31:18;;;;;;;10.50;5.75;;;1.80;99.90;;;;;;5037448;28;20424;-71
2021/12/19 05:33:46;;;;;;;12.73;5.57;;;1.80;99.90;;;;;;5051915;28;20086;-71
2021/12/19 05:47:05;;;;;;;10.50;5.93;;;1.90;99.90;;;;;;5052802;28;20530;-72
2021/12/19 05:49:31;;;;;;;14.83;6.30;;;1.90;99.90;;;;;;5053837;28;20037;-72
2021/12/19 05:51:57;;;;;;;13.90;6.70;;;1.90;99.90;;;;;;5054806;28;20021;-72
2021/12/19 05:54:23;;;;;;;11.48;5.80;;;1.90;99.90;;;;;;5071826;28;20292;-73
2021/12/19 05:56:49;;;;;;;11.38;6.13;;;1.90;99.90;;;;;;5071849;28;20482;-72
2021/12/19 05:59:15;;;;;;;13.03;6.93;;;1.90;99.90;;;;;;5053784;28;20077;-74
2021/12/19 06:01:43;;;;;;;11.05;5.82;;;1.90;99.90;;;;;;5053613;28;20305;-73
2021/12/19 06:04:09;;;;;;;12.35;6.78;;;1.90;99.90;;;;;;5054031;28;20119;-72
2021/12/19 06:06:35;;;;;;;;;;;2.00;99.90;;;;;;5072453;28;20357;-73
2021/12/19 06:09:01;;;;;;;13.13;6.40;;;2.00;99.90;;;;;;5071758;28;19982;-73
2021/12/19 06:11:27;;;;;;;13.63;6.20;;;2.00;99.90;;;;;;5072085;28;20039;-72
2021/12/19 06:13:52;;;;;;;15.80;6.47;;;2.00;99.90;;;;;;5071916;28;20468;-72
2021/12/19 06:16:18;;;;;;;14.17;6.57;;;2.00;99.90;;;;;;5053682;28;20098;-72
2021/12/19 06:18:44;;;;;;;19.93;7.00;;;2.10;99.90;;;;;;5071886;28;20032;-72
2021/12/19 06:21:10;;;;;;;12.33;6.80;;;2.10;99.90;;;;;;5053300;28;20679;-72
2021/12/19 06:23:36;;;;;;;14.13;7.10;;;2.10;99.90;;;;;;5053727;28;20361;-71
2021/12/19 06:26:02;;;;;;;13.07;6.10;;;2.10;99.90;;;;;;5071537;28;20040;-72
2021/12/19 06:28:28;;;;;;;13.97;6.53;;;2.10;99.90;;;;;;5071456;28;20023;-72
2021/12/19 06:30:54;;;;;;;22.77;6.88;;;2.20;99.90;;;;;;5052917;28;20115;-73
2021/12/19 06:33:19;;;;;;;11.70;7.00;;;2.20;99.90;;;;;;5071559;28;20112;-73
2021/12/19 06:35:45;;;;;;;14.43;7.60;;;2.10;99.90;;;;;;5071331;28;20575;-73
2021/12/19 06:38:12;;;;;;;14.20;7.03;;;2.20;99.90;;;;;;5071368;28;20052;-72
2021/12/19 06:40:38;;;;;;;14.77;7.78;;;2.20;99.90;;;;;;5071010;28;20045;-73
2021/12/19 06:43:04;;;;;;;13.93;7.23;;;2.20;99.90;;;;;;5071413;28;20047;-73
2021/12/19 06:45:30;;;;;;;13.87;7.30;;;2.20;99.90;;;;;;5070399;28;20055;-74
2021/12/19 06:47:56;;;;;;;13.77;7.33;;;2.20;99.90;;;;;;5053416;28;20426;-72
2021/12/19 06:50:21;;;;;;;13.55;6.90;;;2.20;99.90;;;;;;5043705;28;20037;-71
2021/12/19 06:52:48;;;;;;;17.13;7.30;;;2.20;99.90;;;;;;5051551;28;20085;-73
2021/12/19 06:55:15;;;;;;;14.93;7.07;;;2.30;99.90;;;;;;5059044;28;20086;-72
2021/12/19 06:57:41;;;;;;;13.90;7.25;;;2.20;99.90;;;;;;5071076;28;20040;-71
2021/12/19 07:00:14;;;;;;;12.07;6.80;;;2.30;99.90;;;;;;5070632;28;20041;-72
2021/12/19 07:02:40;;;;;;;15.20;7.88;;;2.30;99.90;;;;;;5071297;28;20479;-72
2021/12/19 07:05:06;;;;;;;14.77;7.30;;;2.30;99.90;;;;;;5063947;28;20036;-72
2021/12/19 07:07:32;;;;;;;13.48;7.45;;;2.30;99.90;;;;;;5051342;28;20114;-72
2021/12/19 07:09:58;;;;;;;13.63;7.80;;;2.30;99.90;;;;;;5056253;28;20476;-72
2021/12/19 07:12:27;;;;;;;15.55;8.50;;;2.30;99.90;;;;;;5071170;28;20031;-71
2021/12/19 07:14:56;;;;;;;17.33;8.07;;;2.30;99.90;;;;;;5070722;28;20033;-71
2021/12/19 07:17:23;;;;;;;17.33;8.02;;;2.30;99.90;;;;;;5071032;28;20507;-71
2021/12/19 07:19:48;;;;;;;14.95;7.45;;;2.40;99.90;;;;;;5070730;28;20126;-72
2021/12/19 07:22:15;;;;;;;16.60;8.07;;;2.40;99.90;;;;;;5070922;28;20079;-71
2021/12/19 07:24:40;;;;;;;17.88;7.88;;;2.40;99.90;;;;;;5052887;28;20117;-71
2021/12/19 07:27:06;;;;;;;15.17;7.90;;;2.40;99.90;;;;;;5071133;28;20075;-72
2021/12/19 07:29:32;;;;;;;19.00;8.93;;;2.40;99.90;;;;;;5049869;28;20425;-71
2021/12/19 07:31:58;;;;;;;16.87;7.43;;;2.40;99.90;;;;;;5050807;28;20384;-73
2021/12/19 07:34:31;;;;;;;17.95;7.63;;;2.40;99.90;;;;;;5050754;28;20417;-72
2021/12/19 07:36:57;;;;;;;18.60;7.88;;;2.40;99.90;;;;;;5051004;28;20029;-72
2021/12/19 07:39:39;;;;;;;15.95;7.93;;;2.40;99.90;;;;;;5051539;28;20404;-72
2021/12/19 07:42:10;;;;;;;16.85;9.30;;;2.40;99.90;;;;;;5068938;28;20120;-72
2021/12/19 07:44:37;;;;;;;17.30;9.60;;;2.40;99.90;;;;;;5052581;28;20024;-71
2021/12/19 07:47:04;;;;;;;;;;;2.40;99.90;;;;;;5071305;28;20021;-72
2021/12/19 07:49:30;;;;;;;17.83;8.10;;;2.40;99.90;;;;;;5070161;28;19951;-73
2021/12/19 07:51:56;;;;;;;15.07;8.13;;;2.40;99.90;;;;;;5070541;28;20052;-73
2021/12/19 07:54:21;;;;;;;17.77;9.10;;;2.40;99.90;;;;;;5070372;28;20103;-73
2021/12/19 07:56:48;;;;;;;19.00;8.35;;;2.40;99.90;;;;;;5053395;28;20041;-75
2021/12/19 07:59:14;;;;;;;17.17;8.93;;;2.40;99.90;;;;;;5056460;28;20064;-73
2021/12/19 08:01:40;;;;;;;20.65;8.63;;;2.50;99.90;;;;;;5054278;28;20086;-72
2021/12/19 08:04:06;;;;;;;20.63;9.20;;;2.50;99.90;;;;;;5036480;28;20477;-73
2021/12/19 08:06:32;;;;;;;19.75;9.02;;;2.50;99.90;;;;;;5054995;28;20025;-73
2021/12/19 08:09:07;;;;;;;19.43;8.50;;;2.50;99.90;;;;;;5074241;28;20025;-73
2021/12/19 08:11:42;;;;;;;18.25;8.20;;;2.60;99.90;;;;;;5073814;28;20064;-73
2021/12/19 08:14:14;;;;;;;17.77;7.60;;;2.60;99.90;;;;;;5056057;28;20043;-73
2021/12/19 08:16:41;;;;;;;16.25;8.25;;;2.60;99.90;;;;;;5074232;28;20420;-74
2021/12/19 08:19:07;;;;;;;17.73;7.38;;;2.60;99.90;;;;;;5056031;28;20497;-73
2021/12/19 08:21:34;;;;;;;15.85;8.57;;;2.60;99.90;;;;;;5055575;28;20033;-72
2021/12/19 08:24:02;;;;;;;19.15;8.43;;;2.60;99.90;;;;;;5055555;28;20476;-72
2021/12/19 08:26:31;;;;;;;18.95;7.88;;;2.70;99.90;;;;;;5059259;28;20029;-72
2021/12/19 08:28:57;;;;;;;14.43;6.40;;;2.70;99.90;;;;;;5053917;28;20025;-72
2021/12/19 08:31:23;;;;;;;17.93;7.00;;;2.70;99.90;;;;;;5070733;28;20050;-72
2021/12/19 08:33:49;;;;;;;17.63;7.78;;;2.70;99.90;;;;;;5055397;28;20766;-73
2021/12/19 08:36:15;;;;;;;19.10;6.93;;;2.80;99.90;;;;;;5038625;28;20122;-71
2021/12/19 08:38:41;;;;;;;19.75;7.32;;;2.80;99.90;;;;;;5035022;28;20041;-73
2021/12/19 08:41:08;;;;;;;13.40;6.32;;;2.80;99.90;;;;;;5050530;28;20036;-72
2021/12/19 08:43:33;;;;;;;16.33;6.93;;;2.80;99.90;;;;;;5072980;28;20028;-71
2021/12/19 08:45:59;;;;;;;17.33;7.13;;;2.80;99.90;;;;;;5059001;28;20099;-72
2021/12/19 08:48:25;;;;;;;18.23;8.70;;;2.90;99.90;;;;;;5035473;28;20097;-72
2021/12/19 08:50:51;;;;;;;16.20;7.33;;;2.90;99.90;;;;;;5048141;28;20025;-73
2021/12/19 08:53:17;;;;;;;18.83;8.10;;;2.90;99.90;;;;;;5073129;28;20085;-73
2021/12/19 08:55:44;;;;;;;15.77;7.93;;;2.80;99.90;;;;;;5072946;28;20109;-72
2021/12/19 08:58:10;;;;;;;16.60;7.82;;;2.90;99.90;;;;;;5073309;28;20484;-72
2021/12/19 09:00:37;;;;;;;13.48;6.63;;;2.80;99.90;;;;;;5054881;28;20028;-71
2021/12/19 09:03:03;;;;;;;;;;;2.80;99.90;;;;;;5073393;28;20426;-71
2021/12/19 09:05:29;;;;;;;15.30;6.75;;;2.90;99.90;;;;;;5073011;28;19917;-71
2021/12/19 09:07:55;;;;;;;16.42;7.78;;;2.80;99.90;;;;;;5072675;28;20376;-72
2021/12/19 09:10:22;;;;;;;14.27;7.22;;;2.80;99.90;;;;;;5072081;28;20033;-72
2021/12/19 09:12:48;;;;;;;;;;;2.80;99.90;;;;;;5073390;28;20028;-72
2021/12/19 09:15:15;;;;;;;19.50;7.57;;;2.80;99.90;;;;;;5072645;28;19919;-72
2021/12/19 09:17:40;;;;;;;12.63;5.78;;;2.70;99.90;;;;;;5072776;28;20036;-73
2021/12/19 09:20:08;;;;;;;14.37;6.03;;;2.70;99.90;;;;;;5072486;28;20055;-71
2021/12/19 09:22:34;;;;;;;14.23;5.70;;;2.70;99.90;;;;;;5072366;28;20107;-72
2021/12/19 09:25:00;;;;;;;11.52;5.13;;;2.70;99.90;;;;;;5054130;28;20123;-71
2021/12/19 09:27:26;;;;;;;11.13;5.68;;;2.60;99.90;;;;;;5072033;28;20450;-71
2021/12/19 09:29:53;;;;;;;11.27;5.73;;;2.50;99.90;;;;;;5066949;28;20048;-71
2021/12/19 09:32:19;;;;;;;12.10;5.30;;;2.50;99.90;;;;;;5052537;28;20307;-70
2021/12/19 09:34:45;;;;;;;10.13;3.85;;;2.40;99.90;;;;;;5056455;28;20101;-70
2021/12/19 09:37:12;;;;;;;11.90;4.13;;;2.40;99.90;;;;;;5072582;28;20115;-71
2021/12/19 09:39:39;;;;;;;9.45;4.30;;;2.30;99.90;;;;;;5053438;28;20056;-70
2021/12/19 09:42:09;;;;;;;;;;;2.30;99.90;;;;;;5054647;28;20111;-70
2021/12/19 09:44:36;;;;;;;6.45;3.58;;;2.20;99.90;;;;;;5071563;28;20786;-70
2021/12/19 09:47:04;;;;;;;7.82;3.70;;;2.20;99.90;;;;;;5072332;28;20562;-70
2021/12/19 09:49:32;;;;;;;7.70;3.30;;;2.20;99.90;;;;;;5053502;28;20479;-70
2021/12/19 09:51:58;;;;;;;7.57;3.25;;;2.20;99.90;;;;;;5072154;28;20035;-70
2021/12/19 09:54:24;;;;;;;9.10;3.72;;;2.20;99.90;;;;;;5071611;28;20041;-72
2021/12/19 09:56:50;;;;;;;7.53;3.93;;;2.20;99.90;;;;;;5072086;28;20033;-70
2021/12/19 09:59:18;;;;;;;9.33;3.80;;;2.10;99.90;;;;;;5071611;28;20064;-71
2021/12/19 10:01:46;;;;;;;6.57;3.50;;;2.10;99.90;;;;;;5072178;28;20353;-69
2021/12/19 10:04:42;;;;;;;6.90;3.33;;;2.20;99.90;;;;;;5053796;28;20029;-69
2021/12/19 10:07:18;;;;;;;8.88;3.78;;;2.20;99.90;;;;;;5044961;28;20036;-70
2021/12/19 10:10:04;;;;;;;7.05;3.95;;;2.30;99.90;;;;;;5071467;28;20158;-69
2021/12/19 10:12:38;;;;;;;10.00;4.38;;;2.30;99.90;;;;;;5071791;28;20025;-71
2021/12/19 10:15:33;;;;;;;9.77;4.38;;;2.30;99.90;;;;;;5053162;28;20067;-72
2021/12/19 10:18:07;;;;;;;11.27;4.68;;;2.40;99.90;;;;;;5071999;28;20047;-71
2021/12/19 10:20:40;;;;;;;12.40;5.30;;;2.40;99.90;;;;;;5042490;28;20029;-71
2021/12/19 10:23:28;;;;;;;10.35;5.32;;;2.40;99.90;;;;;;5051549;28;20033;-71
2021/12/19 10:26:00;;;;;;;;;;;2.50;99.90;;;;;;5047466;28;20032;-72
2021/12/19 10:28:27;;;;;;;13.02;5.07;;;2.60;99.90;;;;;;5053812;28;19934;-70
2021/12/19 10:30:53;;;;;;;11.13;5.38;;;2.70;99.90;;;;;;5053536;28;20017;-69
2021/12/19 10:33:24;;;;;;;10.85;4.57;;;2.70;99.90;;;;;;5071092;28;20507;-69
2021/12/19 10:36:17;;;;;;;11.25;5.40;;;2.80;99.90;;;;;;5058216;28;20445;-71
2021/12/19 10:38:49;;;;;;;14.48;6.10;;;2.90;99.90;;;;;;5048017;28;20067;-70
2021/12/19 10:41:22;;;;;;;14.90;6.00;;;2.90;99.90;;;;;;5067688;28;20032;-70
2021/12/19 10:44:04;;;;;;;9.43;4.70;;;3.00;99.90;;;;;;5071083;28;20017;-71
2021/12/19 10:46:39;;;;;;;10.32;5.00;;;3.00;99.90;;;;;;5052893;28;20028;-70
2021/12/19 10:49:24;;;;;;;10.82;5.22;;;3.10;99.90;;;;;;5071415;28;20028;-70
2021/12/19 10:51:51;;;;;;;9.18;4.93;;;3.20;99.90;;;;;;5032766;28;20048;-70
2021/12/19 10:54:16;;;;;;;;;;;3.30;99.90;;;;;;5051444;28;20078;-70
2021/12/19 10:56:43;;;;;;;10.57;4.60;;;3.30;99.90;;;;;;5052810;28;19913;-70
2021/12/19 10:59:16;;;;;;;11.50;4.80;;;3.40;99.90;;;;;;5053205;28;20051;-71
2021/12/19 11:01:51;;;;;;;8.70;4.50;;;3.40;99.90;;;;;;5071079;28;20043;-71
2021/12/19 11:04:22;;;;;;;9.57;4.90;;;3.50;99.90;;;;;;5070754;28;20031;-74
2021/12/19 11:06:50;;;;;;;10.40;4.72;;;3.60;99.90;;;;;;5071149;28;20032;-71
2021/12/19 11:09:19;;;;;;;10.27;4.55;;;3.60;99.90;;;;;;5053194;28;20078;-73
2021/12/19 11:11:49;;;;;;;10.00;4.95;;;3.70;99.90;;;;;;5071101;28;20480;-72
2021/12/19 11:14:23;;;;;;;12.85;5.15;;;3.70;99.90;;;;;;5052817;28;20383;-72
2021/12/19 11:16:55;;;;;;;9.95;4.90;;;3.80;99.90;;;;;;5071020;28;20043;-72
2021/12/19 11:19:22;;;;;;;7.85;3.60;;;3.80;99.90;;;;;;5070666;28;20035;-72
2021/12/19 11:21:48;;;;;;;10.32;4.20;;;3.80;99.90;;;;;;5070981;28;20480;-71
2021/12/19 11:24:17;;;;;;;7.43;3.67;;;3.80;99.90;;;;;;5071091;28;20422;-70
2021/12/19 11:26:46;;;;;;;9.77;4.20;;;3.90;99.90;;;;;;5036489;28;20070;-71
2021/12/19 11:29:13;;;;;;;9.88;4.35;;;3.90;99.90;;;;;;5050798;28;20500;-72
2021/12/19 11:31:42;;;;;;;8.07;3.70;;;3.90;99.90;;;;;;5052904;28;20124;-72
2021/12/19 11:34:22;;;;;;;7.55;3.97;;;4.00;99.90;;;;;;5056936;28;20024;-73
2021/12/19 11:37:05;;;;;;;8.35;3.40;;;4.00;99.90;;;;;;5074815;28;20036;-73
2021/12/19 11:39:39;;;;;;;10.23;4.10;;;4.00;99.90;;;;;;5074147;28;20056;-72
2021/12/19 11:42:14;;;;;;;8.18;3.72;;;4.10;99.90;;;;;;5056676;28;20094;-72
2021/12/19 11:47:53;;;;;;;8.13;3.10;;;4.10;99.90;;;;;;5055077;28;20506;-71
2021/12/19 11:50:27;;;;;;;8.75;2.83;;;4.00;99.90;;;;;;5054633;28;20091;-72
2021/12/19 11:52:56;;;;;;;5.13;2.50;;;4.10;99.90;;;;;;5054795;28;20025;-72
2021/12/19 11:55:25;;;;;;;4.47;2.05;;;4.10;99.90;;;;;;5063195;28;20064;-72
2021/12/19 11:58:11;;;;;;;4.93;1.98;;;4.10;99.90;;;;;;5074470;28;20541;-72
2021/12/19 12:00:39;;;;;;;4.80;2.33;;;4.10;99.90;;;;;;5055947;28;20123;-71
2021/12/19 12:03:13;;;;;;;4.35;2.10;;;4.10;99.90;;;;;;5074565;28;20036;-72
2021/12/19 12:05:40;;;;;;;4.70;2.35;;;4.20;99.90;;;;;;5073771;28;20060;-72
2021/12/19 12:08:09;;;;;;;4.90;2.38;;;4.20;99.90;;;;;;5056412;28;20074;-72
2021/12/19 12:10:47;;;;;;;7.07;2.42;;;4.20;99.90;;;;;;5055598;28;20027;-72
2021/12/19 12:13:32;;;;;;;7.10;2.47;;;4.20;99.90;;;;;;5074125;28;20498;-72
2021/12/19 12:16:11;;;;;;;3.55;1.73;;;4.20;99.90;;;;;;5055662;28;20032;-72
2021/12/19 12:18:38;;;;;;;5.32;2.22;;;4.20;99.90;;;;;;5056149;28;20029;-72
2021/12/19 12:22:01;;;;;;;4.45;2.00;;;4.20;99.90;;;;;;5057309;28;20043;-72
2021/12/19 12:24:11;;;;;;;4.53;2.10;;;4.20;99.90;;;;;;5043096;28;20040;-72
2021/12/19 12:26:54;;;;;;;3.63;1.67;;;4.20;99.90;;;;;;5073177;28;20027;-72
2021/12/19 12:29:21;;;;;;;4.03;1.60;;;4.20;99.90;;;;;;5073106;28;20103;-72
2021/12/19 12:31:47;;;;;;;4.40;1.52;;;4.30;99.90;;;;;;5053853;28;20504;-72
2021/12/19 12:34:15;;;;;;;3.35;1.58;;;4.30;99.90;;;;;;5035718;28;20059;-71
2021/12/19 12:36:42;;;;;;;5.10;1.80;;;4.20;99.90;;;;;;5054251;28;20783;-73
2021/12/19 12:39:16;;;;;;;3.47;1.95;;;4.20;99.90;;;;;;5035271;28;20060;-72
2021/12/19 12:41:57;;;;;;;3.53;1.60;;;4.30;99.90;;;;;;5035324;28;20048;-72
2021/12/19 12:44:23;;;;;;;3.50;1.63;;;4.20;99.90;;;;;;5052573;28;20020;-73
2021/12/19 12:46:50;;;;;;;4.10;1.63;;;4.20;99.90;;;;;;5073350;28;20032;-73
2021/12/19 12:49:25;;;;;;;2.70;1.33;;;4.20;99.90;;;;;;5073284;28;20146;-75
2021/12/19 12:51:57;;;;;;;2.60;1.35;;;4.20;99.90;;;;;;5053578;28;20075;-71
2021/12/19 12:54:30;;;;;;;4.45;1.27;;;4.10;99.90;;;;;;5054044;28;20036;-74
2021/12/19 12:56:58;;;;;;;2.63;1.30;;;4.10;99.90;;;;;;5073631;28;20020;-72
2021/12/19 12:59:33;;;;;;;1.92;1.30;;;4.10;99.90;;;;;;5073023;28;20025;-72
2021/12/19 13:02:15;;;;;;;1.90;1.08;;;4.10;99.90;;;;;;5073443;28;20292;-74
2021/12/19 13:04:47;;;;;;;3.00;1.38;;;4.10;99.90;;;;;;5054450;28;20032;-71
2021/12/19 13:07:14;;;;;;;1.95;1.10;;;4.10;99.90;;;;;;5055080;28;20078;-71
2021/12/19 13:09:53;;;;;;;2.53;1.30;;;4.10;99.90;;;;;;5069435;28;20498;-73
2021/12/19 13:12:29;;;;;;;2.55;1.38;;;4.00;99.90;;;;;;5053184;28;20047;-72
2021/12/19 13:14:56;;;;;;;3.13;1.45;;;4.00;99.90;;;;;;5058038;28;20037;-72
2021/12/19 13:17:22;;;;;;;2.45;1.25;;;4.00;99.90;;;;;;5054777;28;20036;-73
2021/12/19 13:20:01;;;;;;;2.20;1.43;;;4.00;99.90;;;;;;5054550;28;20101;-72
2021/12/19 13:22:37;;;;;;;3.72;1.67;;;4.00;99.90;;;;;;5072877;28;20021;-72
2021/12/19 13:25:11;;;;;;;2.42;1.25;;;3.90;99.90;;;;;;5054507;28;20127;-73
2021/12/19 13:27:40;;;;;;;2.95;1.48;;;3.90;99.90;;;;;;5054439;28;20025;-72
2021/12/19 13:30:14;;;;;;;2.47;1.27;;;3.90;99.90;;;;;;5065870;28;20491;-72
2021/12/19 13:32:52;;;;;;;2.90;1.30;;;3.90;99.90;;;;;;5034794;28;20068;-72
2021/12/19 13:35:22;;;;;;;3.05;1.45;;;3.90;99.90;;;;;;5042709;28;20093;-72
2021/12/19 13:37:55;;;;;;;4.65;1.58;;;4.00;99.90;;;;;;5072258;28;20025;-74
2021/12/19 13:40:26;;;;;;;2.10;1.00;;;3.90;99.90;;;;;;5072184;28;20060;-72
2021/12/19 13:42:56;;;;;;;1.42;0.90;;;3.90;99.90;;;;;;5054190;28;20041;-72
2021/12/19 13:45:26;;;;;;;2.30;1.05;;;3.90;99.90;;;;;;5071904;28;20032;-71
2021/12/19 13:47:53;;;;;;;3.28;1.38;;;3.90;99.90;;;;;;5071917;28;20491;-72
2021/12/19 13:50:19;;;;;;;3.15;1.60;;;3.90;99.90;;;;;;5072138;28;20028;-71
2021/12/19 13:52:45;;;;;;;3.10;1.50;;;3.90;99.90;;;;;;5054471;28;20532;-72
2021/12/19 13:55:16;;;;;;;2.53;1.48;;;3.90;99.90;;;;;;5071602;28;20044;-71
2021/12/19 13:57:44;;;;;;;3.38;1.60;;;3.80;99.90;;;;;;5054020;28;20376;-72
2021/12/19 14:00:26;;;;;;;3.67;1.63;;;3.80;99.90;;;;;;5053531;28;20481;-73
2021/12/19 14:02:52;;;;;;;4.53;1.40;;;3.80;99.90;;;;;;5072201;28;20388;-73
2021/12/19 14:05:56;;;;;;;3.00;1.57;;;3.80;99.90;;;;;;5071629;28;20039;-72
2021/12/19 14:08:25;;;;;;;3.72;1.52;;;3.80;99.90;;;;;;5023455;28;20025;-72
2021/12/19 14:11:17;;;;;;;4.20;1.58;;;3.80;99.90;;;;;;5071560;28;20028;-73